Time;durP1;ratioP1;P1;durP2;ratioP2;P2;SDS_P1;SDS_P2;PMS_P1;PMS_P2;Temp;Humidity;BMP_temperature;BMP_pressure;BME280_temperature;BME280_humidity;BME280_pressure;Samples;Min_cycle;Max_cycle;Signal;HPM_P1;HPM_P2
2022/04/04 00:01:16;;;;;;;;;21.00;21.00;;;;;;;;5074360;27;45777;-59
2022/04/04 00:03:42;;;;;;;;;24.25;24.25;;;;;;;;5074104;28;45434;-58
2022/04/04 00:06:07;;;;;;;;;23.00;22.50;;;;;;;;5076439;28;45450;-58
2022/04/04 00:08:33;;;;;;;;;26.25;26.25;;;;;;;;5077668;28;45477;-58
2022/04/04 00:10:58;;;;;;;;;24.75;23.50;;;;;;;;5077688;28;46510;-59
2022/04/04 00:13:24;;;;;;;;;19.75;19.75;;;;;;;;5076675;28;45486;-59
2022/04/04 00:15:49;;;;;;;;;21.25;17.50;;;;;;;;5077629;28;45327;-59
2022/04/04 00:18:14;;;;;;;;;18.00;18.00;;;;;;;;5077782;27;45411;-59
2022/04/04 00:20:40;;;;;;;;;21.50;20.00;;;;;;;;5077316;28;45607;-59
2022/04/04 00:23:12;;;;;;;;;19.75;19.00;;;;;;;;5077462;28;45423;-59
2022/04/04 00:25:37;;;;;;;;;20.25;18.25;;;;;;;;5077028;28;45459;-59
2022/04/04 00:28:02;;;;;;;;;21.50;21.00;;;;;;;;5076952;28;45502;-59
2022/04/04 00:30:27;;;;;;;;;23.25;20.75;;;;;;;;5075567;28;47619;-58
2022/04/04 00:32:52;;;;;;;;;21.00;20.00;;;;;;;;5077406;28;45499;-59
2022/04/04 00:35:18;;;;;;;;;22.25;20.00;;;;;;;;5077850;28;45450;-59
2022/04/04 00:37:43;;;;;;;;;17.50;17.50;;;;;;;;5061707;28;45465;-59
2022/04/04 00:40:08;;;;;;;;;19.50;19.50;;;;;;;;5076925;28;45450;-59
2022/04/04 00:42:33;;;;;;;;;23.00;21.25;;;;;;;;5077057;28;45336;-59
2022/04/04 00:44:59;;;;;;;;;22.50;19.00;;;;;;;;5077426;28;45474;-59
2022/04/04 00:47:25;;;;;;;;;17.75;15.25;;;;;;;;5077147;27;45588;-59
2022/04/04 00:49:50;;;;;;;;;21.50;21.50;;;;;;;;5077288;28;45558;-59
2022/04/04 00:52:16;;;;;;;;;21.50;21.25;;;;;;;;5077186;28;45423;-59
2022/04/04 00:54:41;;;;;;;;;24.00;21.25;;;;;;;;5076810;27;45514;-59
2022/04/04 00:57:06;;;;;;;;;21.25;18.50;;;;;;;;5076692;28;45553;-58
2022/04/04 00:59:32;;;;;;;;;21.25;21.25;;;;;;;;5076962;28;45375;-59
2022/04/04 01:01:57;;;;;;;;;25.50;23.25;;;;;;;;5076836;28;45345;-59
2022/04/04 01:04:22;;;;;;;;;21.00;19.75;;;;;;;;5077537;28;45466;-59
2022/04/04 01:06:47;;;;;;;;;21.75;20.50;;;;;;;;5076445;28;45534;-58
2022/04/04 01:09:14;;;;;;;;;25.00;22.00;;;;;;;;5076346;28;45522;-58
2022/04/04 01:11:58;;;;;;;;;22.75;22.75;;;;;;;;5076827;27;45437;-58
2022/04/04 01:14:23;;;;;;;;;25.75;22.50;;;;;;;;5061847;28;45392;-59
2022/04/04 01:16:48;;;;;;;;;18.25;18.25;;;;;;;;5075974;28;45407;-59
2022/04/04 01:19:14;;;;;;;;;17.75;17.25;;;;;;;;5076764;27;45308;-59
2022/04/04 01:21:39;;;;;;;;;20.25;19.50;;;;;;;;5076306;28;45292;-59
2022/04/04 01:24:05;;;;;;;;;26.50;26.50;;;;;;;;5075192;28;45588;-59
2022/04/04 01:26:31;;;;;;;;;19.00;17.75;;;;;;;;5076358;28;45420;-58
2022/04/04 01:28:56;;;;;;;;;21.75;20.50;;;;;;;;5075218;28;47343;-58
2022/04/04 01:31:21;;;;;;;;;28.25;23.25;;;;;;;;5076762;28;45514;-58
2022/04/04 01:33:46;;;;;;;;;25.25;24.75;;;;;;;;5077462;28;45804;-59
2022/04/04 01:36:12;;;;;;;;;21.75;21.75;;;;;;;;5076517;28;45172;-59
2022/04/04 01:38:37;;;;;;;;;26.50;22.50;;;;;;;;5074626;28;47278;-58
2022/04/04 01:41:02;;;;;;;;;20.50;16.25;;;;;;;;5076201;28;45411;-58
2022/04/04 01:43:27;;;;;;;;;20.50;20.00;;;;;;;;5077005;28;45282;-59
2022/04/04 01:48:37;;;;;;;;;26.75;21.50;;;;;;;;5076161;28;45722;-59
2022/04/04 01:51:03;;;;;;;;;23.00;18.50;;;;;;;;5075898;27;45426;-58
2022/04/04 01:53:29;;;;;;;;;18.25;18.25;;;;;;;;5076192;27;45431;-58
2022/04/04 01:55:57;;;;;;;;;18.75;18.75;;;;;;;;5074976;28;45591;-58
2022/04/04 01:58:23;;;;;;;;;17.75;17.00;;;;;;;;5076406;27;46491;-58
2022/04/04 02:00:49;;;;;;;;;23.25;20.50;;;;;;;;5074922;28;45463;-59
2022/04/04 02:03:14;;;;;;;;;22.50;17.00;;;;;;;;5075995;27;45295;-58
2022/04/04 02:05:39;;;;;;;;;19.75;19.75;;;;;;;;5076089;28;45570;-58
2022/04/04 02:08:04;;;;;;;;;16.75;16.25;;;;;;;;5075788;28;45454;-58
2022/04/04 02:10:30;;;;;;;;;17.00;17.00;;;;;;;;5076225;28;45295;-58
2022/04/04 02:12:55;;;;;;;;;18.50;16.00;;;;;;;;5074199;28;45450;-58
2022/04/04 02:15:21;;;;;;;;;12.25;12.25;;;;;;;;5075848;27;45343;-59
2022/04/04 02:17:46;;;;;;;;;13.75;13.00;;;;;;;;5075432;28;46632;-58
2022/04/04 02:20:11;;;;;;;;;16.25;15.25;;;;;;;;5074500;28;45657;-57
2022/04/04 02:22:36;;;;;;;;;16.00;15.25;;;;;;;;5076412;27;45330;-59
2022/04/04 02:25:02;;;;;;;;;14.50;14.50;;;;;;;;5075627;28;45383;-59
2022/04/04 02:27:28;;;;;;;;;15.50;12.75;;;;;;;;5075379;28;45375;-59
2022/04/04 02:29:53;;;;;;;;;16.00;15.00;;;;;;;;5074256;28;45515;-59
2022/04/04 02:32:19;;;;;;;;;17.25;16.75;;;;;;;;5075614;28;45350;-59
2022/04/04 02:34:45;;;;;;;;;13.75;13.75;;;;;;;;5075007;28;45602;-59
2022/04/04 02:37:10;;;;;;;;;16.75;16.00;;;;;;;;5075228;27;46083;-59
2022/04/04 02:39:35;;;;;;;;;14.00;14.00;;;;;;;;5075205;28;45427;-59
2022/04/04 02:42:01;;;;;;;;;19.25;16.50;;;;;;;;5073986;28;45625;-60
2022/04/04 02:44:26;;;;;;;;;15.00;14.00;;;;;;;;5075483;27;45363;-60
2022/04/04 02:46:52;;;;;;;;;14.25;14.00;;;;;;;;5075718;28;46271;-59
2022/04/04 02:49:17;;;;;;;;;18.25;18.25;;;;;;;;5075706;28;45392;-60
2022/04/04 02:51:42;;;;;;;;;15.75;13.25;;;;;;;;5075434;28;45487;-58
2022/04/04 02:54:07;;;;;;;;;14.25;14.25;;;;;;;;5073921;28;45309;-60
2022/04/04 02:56:33;;;;;;;;;16.25;16.25;;;;;;;;5074055;28;47396;-59
2022/04/04 02:59:00;;;;;;;;;15.50;15.00;;;;;;;;5074202;28;45515;-59
2022/04/04 03:01:25;;;;;;;;;19.00;15.50;;;;;;;;5073635;28;45343;-58
2022/04/04 03:03:51;;;;;;;;;16.75;16.00;;;;;;;;5074804;27;45426;-59
2022/04/04 03:06:16;;;;;;;;;17.25;16.75;;;;;;;;5073596;28;47499;-56
2022/04/04 03:08:41;;;;;;;;;17.50;16.75;;;;;;;;5074496;28;45463;-58
2022/04/04 03:11:07;;;;;;;;;19.00;19.00;;;;;;;;5074878;28;45280;-57
2022/04/04 03:13:32;;;;;;;;;20.75;20.25;;;;;;;;5074892;28;45421;-58
2022/04/04 03:15:57;;;;;;;;;23.75;17.25;;;;;;;;5075526;28;45854;-57
2022/04/04 03:18:23;;;;;;;;;17.75;16.25;;;;;;;;5074749;27;45348;-57
2022/04/04 03:20:49;;;;;;;;;14.50;14.50;;;;;;;;5074850;28;45383;-59
2022/04/04 03:23:14;;;;;;;;;16.25;15.00;;;;;;;;5073641;28;45497;-57
2022/04/04 03:25:39;;;;;;;;;19.00;14.50;;;;;;;;5073828;28;47406;-59
2022/04/04 03:28:05;;;;;;;;;13.25;13.25;;;;;;;;5073266;28;46058;-59
2022/04/04 03:30:31;;;;;;;;;19.00;17.00;;;;;;;;5074616;28;45302;-59
2022/04/04 03:32:57;;;;;;;;;13.75;11.50;;;;;;;;5074611;27;45486;-60
2022/04/04 03:35:23;;;;;;;;;16.00;16.00;;;;;;;;5075137;27;47607;-59
2022/04/04 03:37:50;;;;;;;;;15.25;14.00;;;;;;;;5073417;28;45345;-59
2022/04/04 03:40:16;;;;;;;;;12.25;12.00;;;;;;;;5075611;28;45609;-60
2022/04/04 03:42:42;;;;;;;;;11.00;10.00;;;;;;;;5061029;28;45468;-59
2022/04/04 03:45:08;;;;;;;;;19.75;13.50;;;;;;;;5077671;27;45415;-59
2022/04/04 03:47:33;;;;;;;;;13.75;12.25;;;;;;;;5077900;27;45364;-59
2022/04/04 03:49:59;;;;;;;;;14.75;13.50;;;;;;;;5078224;28;45514;-59
2022/04/04 03:52:24;;;;;;;;;15.50;14.50;;;;;;;;5077041;28;45623;-59
2022/04/04 03:54:50;;;;;;;;;15.50;14.75;;;;;;;;5077703;27;45982;-60
2022/04/04 03:57:15;;;;;;;;;14.25;14.25;;;;;;;;5077847;27;45527;-59
2022/04/04 03:59:40;;;;;;;;;15.75;13.00;;;;;;;;5076756;28;45353;-57
2022/04/04 04:02:06;;;;;;;;;26.25;26.00;;;;;;;;5076790;28;45491;-58
2022/04/04 04:04:31;;;;;;;;;21.25;20.00;;;;;;;;5078290;28;46145;-59
2022/04/04 04:06:56;;;;;;;;;23.75;22.75;;;;;;;;5076117;28;45515;-59
2022/04/04 04:09:21;;;;;;;;;27.50;25.25;;;;;;;;5076232;28;45436;-59
2022/04/04 04:11:47;;;;;;;;;24.50;21.00;;;;;;;;5077898;28;45345;-59
2022/04/04 04:14:13;;;;;;;;;18.50;18.00;;;;;;;;5059988;28;48549;-59
2022/04/04 04:16:38;;;;;;;;;15.00;14.50;;;;;;;;5076680;28;45426;-59
2022/04/04 04:19:03;;;;;;;;;15.00;15.00;;;;;;;;5077517;28;45285;-59
2022/04/04 04:21:29;;;;;;;;;9.25;6.50;;;;;;;;5077503;28;45331;-60
2022/04/04 04:23:54;;;;;;;;;12.50;12.50;;;;;;;;5075690;28;46635;-59
2022/04/04 04:26:21;;;;;;;;;12.50;12.25;;;;;;;;5078210;28;45352;-60
2022/04/04 04:28:47;;;;;;;;;16.50;16.50;;;;;;;;5078013;28;45659;-60
2022/04/04 04:31:12;;;;;;;;;21.00;18.50;;;;;;;;5055841;28;45511;-59
2022/04/04 04:33:38;;;;;;;;;23.00;17.25;;;;;;;;5072796;28;45657;-59
2022/04/04 04:36:03;;;;;;;;;12.25;11.50;;;;;;;;5077039;28;45359;-59
2022/04/04 04:38:30;;;;;;;;;15.00;15.00;;;;;;;;5077395;27;45371;-58
2022/04/04 04:40:55;;;;;;;;;16.50;16.50;;;;;;;;5076241;28;45423;-59
2022/04/04 04:43:21;;;;;;;;;13.50;13.25;;;;;;;;5077553;27;45280;-59
2022/04/04 04:45:46;;;;;;;;;18.75;16.25;;;;;;;;5076736;28;45436;-59
2022/04/04 04:48:11;;;;;;;;;15.00;15.00;;;;;;;;5075831;28;45307;-59
2022/04/04 04:50:36;;;;;;;;;19.75;16.25;;;;;;;;5076314;27;45351;-59
2022/04/04 04:53:02;;;;;;;;;19.75;15.50;;;;;;;;5076372;28;46045;-60
2022/04/04 04:55:27;;;;;;;;;15.50;15.50;;;;;;;;5077429;27;45504;-59
2022/04/04 04:57:53;;;;;;;;;18.50;18.50;;;;;;;;5075591;28;45421;-59
2022/04/04 05:00:26;;;;;;;;;11.25;10.50;;;;;;;;5072156;27;45462;-59
2022/04/04 05:03:24;;;;;;;;;21.25;19.50;;;;;;;;5064494;28;46754;-59
2022/04/04 05:05:37;;;;;;;;;19.00;16.25;;;;;;;;5076958;28;45427;-59
2022/04/04 05:08:03;;;;;;;;;18.50;16.50;;;;;;;;5076606;28;45498;-59
2022/04/04 05:10:29;;;;;;;;;25.50;18.75;;;;;;;;5076124;28;45519;-60
2022/04/04 05:12:54;;;;;;;;;15.50;15.50;;;;;;;;5076297;27;46656;-60
2022/04/04 05:15:21;;;;;;;;;18.50;15.25;;;;;;;;5076547;28;45280;-59
2022/04/04 05:17:46;;;;;;;;;18.50;17.50;;;;;;;;5075772;28;45289;-60
2022/04/04 05:20:11;;;;;;;;;25.50;19.25;;;;;;;;5060029;28;45387;-60
2022/04/04 05:22:37;;;;;;;;;19.00;16.00;;;;;;;;5072351;28;45652;-62
2022/04/04 05:25:02;;;;;;;;;18.75;18.75;;;;;;;;5076269;27;45457;-61
2022/04/04 05:27:28;;;;;;;;;22.75;19.50;;;;;;;;5076388;28;45442;-61
2022/04/04 05:29:53;;;;;;;;;19.25;19.25;;;;;;;;5076188;28;45455;-60
2022/04/04 05:32:19;;;;;;;;;18.00;16.00;;;;;;;;5072713;28;47440;-61
2022/04/04 05:34:45;;;;;;;;;20.25;17.25;;;;;;;;5075126;28;45510;-61
2022/04/04 05:37:12;;;;;;;;;18.50;17.25;;;;;;;;5073816;27;45399;-60
2022/04/04 05:39:38;;;;;;;;;18.00;16.50;;;;;;;;5075639;27;45542;-61
2022/04/04 05:42:03;;;;;;;;;21.75;18.25;;;;;;;;5074663;28;47574;-60
2022/04/04 05:44:28;;;;;;;;;16.75;16.75;;;;;;;;5075028;28;45455;-61
2022/04/04 05:46:54;;;;;;;;;18.50;16.25;;;;;;;;5075150;28;45485;-60
2022/04/04 05:49:19;;;;;;;;;18.00;17.50;;;;;;;;5076627;27;45428;-60
2022/04/04 05:51:44;;;;;;;;;15.50;15.50;;;;;;;;5075948;27;46491;-60
2022/04/04 05:54:10;;;;;;;;;18.25;18.25;;;;;;;;5067836;28;45422;-61
2022/04/04 05:56:37;;;;;;;;;14.50;14.00;;;;;;;;5061045;28;45523;-60
2022/04/04 05:59:02;;;;;;;;;20.75;13.50;;;;;;;;5058002;28;45342;-60
2022/04/04 06:01:28;;;;;;;;;21.50;18.75;;;;;;;;5075534;28;45325;-60
2022/04/04 06:03:53;;;;;;;;;16.00;16.00;;;;;;;;5072568;28;46311;-61
2022/04/04 06:06:18;;;;;;;;;16.25;14.00;;;;;;;;5072438;28;45492;-60
2022/04/04 06:08:43;;;;;;;;;18.75;15.75;;;;;;;;5071366;28;45623;-60
2022/04/04 06:11:08;;;;;;;;;15.25;15.00;;;;;;;;5074076;28;45925;-60
2022/04/04 06:13:34;;;;;;;;;16.25;14.50;;;;;;;;5072964;28;46502;-60
2022/04/04 06:15:59;;;;;;;;;21.25;17.25;;;;;;;;5074939;27;45282;-60
2022/04/04 06:18:24;;;;;;;;;21.50;19.00;;;;;;;;5075639;28;45298;-60
2022/04/04 06:20:50;;;;;;;;;18.75;15.75;;;;;;;;5074898;28;45850;-60
2022/04/04 06:23:15;;;;;;;;;19.25;18.25;;;;;;;;5073962;28;46050;-60
2022/04/04 06:25:41;;;;;;;;;19.00;15.00;;;;;;;;5075088;28;45450;-61
2022/04/04 06:28:06;;;;;;;;;21.75;19.50;;;;;;;;5074044;27;45478;-59
2022/04/04 06:30:32;;;;;;;;;16.25;15.00;;;;;;;;5073067;27;47825;-60
2022/04/04 06:32:57;;;;;;;;;15.50;15.00;;;;;;;;5074366;28;45566;-59
2022/04/04 06:35:25;;;;;;;;;17.75;15.25;;;;;;;;5074421;28;45569;-60
2022/04/04 06:37:53;;;;;;;;;8.25;8.25;;;;;;;;5075338;28;45477;-59
2022/04/04 06:40:19;;;;;;;;;19.25;17.00;;;;;;;;5062273;28;46826;-59
2022/04/04 06:42:45;;;;;;;;;8.50;8.50;;;;;;;;5071674;28;45380;-59
2022/04/04 06:45:12;;;;;;;;;17.25;15.50;;;;;;;;5075255;27;45441;-59
2022/04/04 06:47:37;;;;;;;;;14.25;12.75;;;;;;;;5075448;28;45188;-59
2022/04/04 06:50:03;;;;;;;;;13.50;11.75;;;;;;;;5071107;28;46614;-60
2022/04/04 06:52:29;;;;;;;;;11.50;11.50;;;;;;;;5072813;28;45872;-61
2022/04/04 06:54:55;;;;;;;;;15.00;14.00;;;;;;;;5076038;28;47125;-60
2022/04/04 06:57:21;;;;;;;;;16.00;14.00;;;;;;;;5074869;27;45378;-61
2022/04/04 06:59:46;;;;;;;;;15.50;14.50;;;;;;;;5074060;27;45875;-60
2022/04/04 07:02:12;;;;;;;;;13.50;11.00;;;;;;;;5074206;28;45316;-60
2022/04/04 07:04:37;;;;;;;;;11.75;11.75;;;;;;;;5074437;28;45444;-59
2022/04/04 07:07:03;;;;;;;;;12.25;12.25;;;;;;;;5072891;28;45377;-60
2022/04/04 07:09:29;;;;;;;;;10.50;8.75;;;;;;;;5073556;28;45465;-59
2022/04/04 07:11:54;;;;;;;;;20.00;19.50;;;;;;;;5073515;28;45416;-59
2022/04/04 07:14:19;;;;;;;;;18.00;15.00;;;;;;;;5073386;28;45456;-60
2022/04/04 07:16:44;;;;;;;;;11.50;10.50;;;;;;;;5079340;28;45421;-60
2022/04/04 07:19:15;;;;;;;;;11.00;10.00;;;;;;;;5077491;28;47612;-59
2022/04/04 07:21:41;;;;;;;;;7.00;7.00;;;;;;;;5063945;28;46019;-59
2022/04/04 07:24:06;;;;;;;;;9.75;9.75;;;;;;;;5076654;28;45316;-59
2022/04/04 07:26:31;;;;;;;;;23.25;19.75;;;;;;;;5077335;28;45411;-60
2022/04/04 07:28:56;;;;;;;;;10.75;10.75;;;;;;;;5078376;28;45785;-60
2022/04/04 07:31:22;;;;;;;;;10.00;10.00;;;;;;;;5077460;28;45443;-60
2022/04/04 07:33:47;;;;;;;;;11.00;11.00;;;;;;;;5078275;27;45349;-59
2022/04/04 07:36:12;;;;;;;;;10.25;10.25;;;;;;;;5077836;28;45460;-61
2022/04/04 07:38:38;;;;;;;;;10.00;8.50;;;;;;;;5077287;27;46446;-60
2022/04/04 07:41:03;;;;;;;;;11.75;10.25;;;;;;;;5077276;27;45470;-59
2022/04/04 07:43:28;;;;;;;;;9.50;9.50;;;;;;;;5078814;27;45342;-61
2022/04/04 07:45:54;;;;;;;;;9.75;9.50;;;;;;;;5078162;28;45350;-61
2022/04/04 07:48:19;;;;;;;;;10.00;8.00;;;;;;;;5077870;27;45540;-60
2022/04/04 07:50:45;;;;;;;;;9.25;7.50;;;;;;;;5077950;28;45309;-60
2022/04/04 07:53:11;;;;;;;;;15.75;13.00;;;;;;;;5076072;28;45438;-59
2022/04/04 07:55:36;;;;;;;;;10.00;8.00;;;;;;;;5078661;27;45539;-59
2022/04/04 07:58:02;;;;;;;;;8.50;8.00;;;;;;;;5077650;28;46449;-60
2022/04/04 08:00:28;;;;;;;;;8.50;6.00;;;;;;;;5077841;27;45253;-59
2022/04/04 08:02:54;;;;;;;;;4.50;4.50;;;;;;;;5077854;27;45358;-62
2022/04/04 08:05:19;;;;;;;;;20.00;16.75;;;;;;;;5077255;28;45474;-60
2022/04/04 08:07:47;;;;;;;;;3.00;3.00;;;;;;;;5077793;28;46386;-60
2022/04/04 08:10:13;;;;;;;;;7.00;4.50;;;;;;;;5076360;28;45429;-60
2022/04/04 08:12:38;;;;;;;;;7.00;6.00;;;;;;;;5075438;28;45360;-60
2022/04/04 08:15:04;;;;;;;;;6.25;4.25;;;;;;;;5077371;28;45442;-59
2022/04/04 08:17:30;;;;;;;;;4.25;4.00;;;;;;;;5077805;28;45696;-60
2022/04/04 08:19:56;;;;;;;;;6.00;4.00;;;;;;;;5076336;28;45445;-59
2022/04/04 08:22:22;;;;;;;;;8.00;7.00;;;;;;;;5076713;28;45403;-59
2022/04/04 08:24:49;;;;;;;;;5.25;4.75;;;;;;;;5077601;28;45865;-60
2022/04/04 08:27:14;;;;;;;;;7.25;7.25;;;;;;;;5073920;28;48766;-60
2022/04/04 08:29:39;;;;;;;;;7.00;7.00;;;;;;;;5074801;28;45526;-61
2022/04/04 08:32:05;;;;;;;;;1.75;1.75;;;;;;;;5075959;28;45500;-61
2022/04/04 08:34:30;;;;;;;;;73.00;52.25;;;;;;;;5076484;27;45561;-61
2022/04/04 08:36:55;;;;;;;;;7.00;6.00;;;;;;;;5059859;28;47614;-61
2022/04/04 08:39:21;;;;;;;;;6.75;6.75;;;;;;;;5075496;28;46223;-62
2022/04/04 08:41:46;;;;;;;;;6.75;6.50;;;;;;;;5077201;28;45440;-61
2022/04/04 08:44:14;;;;;;;;;3.75;3.75;;;;;;;;5077359;28;45484;-61
2022/04/04 08:46:40;;;;;;;;;2.00;2.00;;;;;;;;5077779;27;46483;-61
2022/04/04 08:49:06;;;;;;;;;2.25;2.25;;;;;;;;5077008;28;45525;-61
2022/04/04 08:51:32;;;;;;;;;2.75;2.50;;;;;;;;5076411;28;45584;-61
2022/04/04 08:53:57;;;;;;;;;3.50;3.50;;;;;;;;5076475;28;45446;-61
2022/04/04 08:56:23;;;;;;;;;3.00;3.00;;;;;;;;5075255;28;47493;-61
2022/04/04 08:58:49;;;;;;;;;3.50;3.50;;;;;;;;5076613;27;45345;-61
2022/04/04 09:01:14;;;;;;;;;5.00;4.00;;;;;;;;5075974;28;45494;-60
2022/04/04 09:03:39;;;;;;;;;4.50;3.75;;;;;;;;5075380;28;45427;-60
2022/04/04 09:06:05;;;;;;;;;1.25;1.00;;;;;;;;5076632;28;46075;-61
2022/04/04 09:08:42;;;;;;;;;2.25;2.25;;;;;;;;5076645;27;45770;-60
2022/04/04 09:11:07;;;;;;;;;3.50;3.50;;;;;;;;5075095;28;45523;-61
2022/04/04 09:13:34;;;;;;;;;5.00;4.00;;;;;;;;5076197;28;45555;-60
2022/04/04 09:16:00;;;;;;;;;3.75;3.00;;;;;;;;5075315;28;46765;-61
2022/04/04 09:18:41;;;;;;;;;3.75;2.25;;;;;;;;5076582;28;45451;-61
2022/04/04 09:21:18;;;;;;;;;3.00;2.00;;;;;;;;5076573;27;45494;-60
2022/04/04 09:23:46;;;;;;;;;3.25;3.25;;;;;;;;5078510;28;45512;-61
2022/04/04 09:26:29;;;;;;;;;1.50;1.50;;;;;;;;5076369;28;46135;-62
2022/04/04 09:28:59;;;;;;;;;1.00;1.00;;;;;;;;5073914;28;45363;-62
2022/04/04 09:31:24;;;;;;;;;2.00;2.00;;;;;;;;5075800;28;45555;-61
2022/04/04 09:33:50;;;;;;;;;3.00;3.00;;;;;;;;5075604;28;45540;-61
2022/04/04 09:36:16;;;;;;;;;1.50;1.50;;;;;;;;5075694;27;45383;-61
2022/04/04 09:38:53;;;;;;;;;1.75;1.25;;;;;;;;5074521;28;45534;-61
2022/04/04 09:41:22;;;;;;;;;0.75;0.75;;;;;;;;5060581;28;45356;-60
2022/04/04 09:43:50;;;;;;;;;1.00;1.00;;;;;;;;5074606;28;45590;-61
2022/04/04 09:46:15;;;;;;;;;0.75;0.75;;;;;;;;5075742;28;46532;-61
2022/04/04 09:48:59;;;;;;;;;2.50;2.50;;;;;;;;5075350;27;45461;-62
2022/04/04 09:51:54;;;;;;;;;1.75;1.75;;;;;;;;5076076;28;45448;-62
2022/04/04 09:54:23;;;;;;;;;1.00;1.00;;;;;;;;5058189;27;45367;-61
2022/04/04 09:56:53;;;;;;;;;0.75;0.00;;;;;;;;5074738;28;48458;-61
2022/04/04 09:59:19;;;;;;;;;1.00;1.00;;;;;;;;5075978;27;45516;-62
2022/04/04 10:01:45;;;;;;;;;1.50;1.25;;;;;;;;5076887;27;45562;-60
2022/04/04 10:04:14;;;;;;;;;0.00;0.00;;;;;;;;5075894;28;45218;-60
2022/04/04 10:06:41;;;;;;;;;2.00;1.00;;;;;;;;5075238;27;47658;-61
2022/04/04 10:09:07;;;;;;;;;1.00;1.00;;;;;;;;5074978;28;45384;-61
2022/04/04 10:11:34;;;;;;;;;0.75;0.75;;;;;;;;5056557;28;45869;-61
2022/04/04 10:13:59;;;;;;;;;1.00;1.00;;;;;;;;5073401;28;45378;-61
2022/04/04 10:16:25;;;;;;;;;2.00;1.00;;;;;;;;5076246;27;46133;-61
2022/04/04 10:18:51;;;;;;;;;1.00;1.00;;;;;;;;5075695;28;45688;-62
2022/04/04 10:21:16;;;;;;;;;1.00;1.00;;;;;;;;5075702;27;45395;-61
2022/04/04 10:23:43;;;;;;;;;1.50;1.25;;;;;;;;5076014;27;45321;-62
2022/04/04 10:26:09;;;;;;;;;0.75;0.75;;;;;;;;5075895;27;46666;-60
2022/04/04 10:28:35;;;;;;;;;2.00;2.00;;;;;;;;5076076;27;45420;-60
2022/04/04 10:31:20;;;;;;;;;2.00;2.00;;;;;;;;5075637;27;45401;-60
2022/04/04 10:33:47;;;;;;;;;3.50;2.00;;;;;;;;5075152;28;45301;-59
2022/04/04 10:36:18;;;;;;;;;3.50;2.25;;;;;;;;5074576;28;47687;-60
2022/04/04 10:38:46;;;;;;;;;2.00;2.00;;;;;;;;5075735;27;45474;-60
2022/04/04 10:41:13;;;;;;;;;2.00;2.00;;;;;;;;5075447;28;45313;-60
2022/04/04 10:43:39;;;;;;;;;1.50;1.50;;;;;;;;5076007;27;45515;-60
2022/04/04 10:46:12;;;;;;;;;2.00;2.00;;;;;;;;5073010;28;48630;-62
2022/04/04 10:48:38;;;;;;;;;2.50;1.50;;;;;;;;5074276;27;45582;-60
2022/04/04 10:51:15;;;;;;;;;2.00;2.00;;;;;;;;5074872;27;45561;-59
2022/04/04 10:53:47;;;;;;;;;3.00;3.00;;;;;;;;5075371;27;45450;-60
2022/04/04 10:56:18;;;;;;;;;3.00;3.00;;;;;;;;5075126;27;46480;-60
2022/04/04 10:58:43;;;;;;;;;3.00;3.00;;;;;;;;5083995;27;46158;-61
2022/04/04 11:01:14;;;;;;;;;6.00;3.00;;;;;;;;5074828;28;45494;-63
2022/04/04 11:03:41;;;;;;;;;2.75;2.75;;;;;;;;5073785;28;45470;-61
2022/04/04 11:09:15;;;;;;;;;4.00;4.00;;;;;;;;5074586;28;45344;-63
2022/04/04 11:11:45;;;;;;;;;3.00;3.00;;;;;;;;5075371;27;45383;-64
2022/04/04 11:14:13;;;;;;;;;3.50;3.50;;;;;;;;5075223;27;45198;-64
2022/04/04 11:17:05;;;;;;;;;3.50;3.50;;;;;;;;5075361;28;46616;-62
2022/04/04 11:19:42;;;;;;;;;5.00;4.00;;;;;;;;4992769;28;45413;-63
2022/04/04 11:22:07;;;;;;;;;4.00;4.00;;;;;;;;4992548;28;45456;-62
2022/04/04 11:24:33;;;;;;;;;5.75;5.75;;;;;;;;4991143;28;45415;-61
2022/04/04 11:26:58;;;;;;;;;4.00;4.00;;;;;;;;4990800;28;46073;-61
2022/04/04 11:29:25;;;;;;;;;5.00;5.00;;;;;;;;4991612;28;45478;-63
2022/04/04 11:31:51;;;;;;;;;5.00;5.00;;;;;;;;4976151;28;45494;-61
2022/04/04 11:34:16;;;;;;;;;4.75;4.75;;;;;;;;4992938;28;45326;-61
2022/04/04 11:36:43;;;;;;;;;4.25;4.25;;;;;;;;4992076;28;47316;-62
2022/04/04 11:39:10;;;;;;;;;4.00;3.50;;;;;;;;4975910;28;45356;-62
2022/04/04 11:41:46;;;;;;;;;5.75;5.75;;;;;;;;4975390;28;45359;-62
2022/04/04 11:44:21;;;;;;;;;5.75;5.75;;;;;;;;4992500;28;45272;-62
2022/04/04 11:47:05;;;;;;;;;5.50;5.50;;;;;;;;4972724;28;46679;-63
2022/04/04 11:49:37;;;;;;;;;7.50;5.50;;;;;;;;4974666;28;46197;-60
2022/04/04 11:52:07;;;;;;;;;4.50;4.00;;;;;;;;4966033;28;45492;-61
2022/04/04 11:54:39;;;;;;;;;6.00;6.00;;;;;;;;4966771;28;45268;-61
2022/04/04 11:57:05;;;;;;;;;4.00;4.00;;;;;;;;5064264;27;47942;-61
2022/04/04 11:59:33;;;;;;;;;3.25;3.25;;;;;;;;5074104;28;45384;-60
2022/04/04 12:01:58;;;;;;;;;4.50;4.50;;;;;;;;5077518;27;45453;-62
2022/04/04 12:04:25;;;;;;;;;5.00;5.00;;;;;;;;5076921;28;45341;-62
2022/04/04 12:06:51;;;;;;;;;2.75;2.75;;;;;;;;5077424;28;45445;-61
2022/04/04 12:09:29;;;;;;;;;4.50;4.50;;;;;;;;5077284;27;45702;-61
2022/04/04 12:12:07;;;;;;;;;5.75;5.75;;;;;;;;5077711;27;45452;-62
2022/04/04 12:14:45;;;;;;;;;3.00;3.00;;;;;;;;5076393;28;45590;-62
2022/04/04 12:17:19;;;;;;;;;5.00;5.00;;;;;;;;5077605;27;46514;-62
2022/04/04 12:19:45;;;;;;;;;4.00;4.00;;;;;;;;5074367;28;45422;-62
2022/04/04 12:24:58;;;;;;;;;4.25;4.25;;;;;;;;5077583;28;45446;-62
2022/04/04 12:27:24;;;;;;;;;4.00;4.00;;;;;;;;5075990;28;46527;-62
2022/04/04 12:29:52;;;;;;;;;8.00;6.75;;;;;;;;5077366;27;45427;-61
2022/04/04 12:32:18;;;;;;;;;5.75;5.75;;;;;;;;5077607;27;45429;-61
2022/04/04 12:34:54;;;;;;;;;4.75;4.00;;;;;;;;5078376;27;45417;-62
2022/04/04 12:37:20;;;;;;;;;5.25;5.25;;;;;;;;5064131;28;46367;-61
2022/04/04 12:39:48;;;;;;;;;4.50;3.00;;;;;;;;5067612;28;45559;-62
2022/04/04 12:42:13;;;;;;;;;5.00;5.00;;;;;;;;5073461;27;45419;-62
2022/04/04 12:44:38;;;;;;;;;5.75;4.25;;;;;;;;5074667;27;45713;-62
2022/04/04 12:47:05;;;;;;;;;4.75;4.75;;;;;;;;5075718;27;45427;-62
2022/04/04 12:49:30;;;;;;;;;4.00;4.00;;;;;;;;5077967;27;45429;-62
2022/04/04 12:52:00;;;;;;;;;7.00;5.75;;;;;;;;5075632;27;45439;-62
2022/04/04 12:54:25;;;;;;;;;6.00;5.00;;;;;;;;5075478;27;45387;-62
2022/04/04 12:56:51;;;;;;;;;7.00;5.50;;;;;;;;5070714;28;46591;-61
2022/04/04 12:59:18;;;;;;;;;5.75;4.75;;;;;;;;5075708;27;45390;-63
2022/04/04 13:01:59;;;;;;;;;5.75;5.75;;;;;;;;5078020;27;45411;-62
2022/04/04 13:04:24;;;;;;;;;8.00;6.25;;;;;;;;5077325;28;45452;-62
2022/04/04 13:06:50;;;;;;;;;4.50;4.25;;;;;;;;5075090;27;45753;-61
2022/04/04 13:09:22;;;;;;;;;5.75;5.25;;;;;;;;5072946;27;45402;-61
2022/04/04 13:11:48;;;;;;;;;4.50;4.50;;;;;;;;5074729;27;45423;-62
2022/04/04 13:14:14;;;;;;;;;4.50;4.50;;;;;;;;5075134;27;45606;-61
2022/04/04 13:16:42;;;;;;;;;6.75;6.75;;;;;;;;5075938;28;45866;-61
2022/04/04 13:19:08;;;;;;;;;6.00;5.00;;;;;;;;5076253;27;45573;-61
2022/04/04 13:21:38;;;;;;;;;5.00;5.00;;;;;;;;5076459;27;45388;-61
2022/04/04 13:24:04;;;;;;;;;7.00;6.00;;;;;;;;5076560;27;45489;-61
2022/04/04 13:26:29;;;;;;;;;4.25;4.25;;;;;;;;5076376;27;45476;-63
2022/04/04 13:28:55;;;;;;;;;7.00;7.00;;;;;;;;5076632;27;45328;-62
2022/04/04 13:31:20;;;;;;;;;5.50;5.00;;;;;;;;5077155;27;45420;-62
2022/04/04 13:33:46;;;;;;;;;5.00;5.00;;;;;;;;5076591;27;45462;-62
2022/04/04 13:36:12;;;;;;;;;8.25;7.50;;;;;;;;5075176;28;45513;-62
2022/04/04 13:38:37;;;;;;;;;5.00;5.00;;;;;;;;5075006;28;45872;-62
2022/04/04 13:41:02;;;;;;;;;6.25;5.50;;;;;;;;5076607;28;45454;-61
2022/04/04 13:43:28;;;;;;;;;4.50;4.50;;;;;;;;5077093;27;45379;-62
2022/04/04 13:45:53;;;;;;;;;7.75;6.25;;;;;;;;5076059;28;46543;-62
2022/04/04 13:48:19;;;;;;;;;3.50;3.25;;;;;;;;5076338;27;45481;-62
2022/04/04 13:50:44;;;;;;;;;10.25;10.00;;;;;;;;5076397;27;45383;-61
2022/04/04 13:53:10;;;;;;;;;8.50;8.00;;;;;;;;5077344;28;45559;-62
2022/04/04 13:55:35;;;;;;;;;8.25;6.25;;;;;;;;5078502;28;45622;-62
2022/04/04 13:58:00;;;;;;;;;7.00;7.00;;;;;;;;5076798;28;45177;-62
2022/04/04 14:00:25;;;;;;;;;7.50;7.50;;;;;;;;5076264;28;45257;-63
2022/04/04 14:02:50;;;;;;;;;8.50;6.25;;;;;;;;5074944;28;45551;-62
2022/04/04 14:05:16;;;;;;;;;8.00;6.75;;;;;;;;5074699;28;47126;-60
2022/04/04 14:07:41;;;;;;;;;10.00;9.00;;;;;;;;5076435;27;45446;-61
2022/04/04 14:10:07;;;;;;;;;6.00;6.00;;;;;;;;5075810;27;45397;-61
2022/04/04 14:12:35;;;;;;;;;8.25;8.25;;;;;;;;5075722;27;45829;-61
2022/04/04 14:15:01;;;;;;;;;10.00;10.00;;;;;;;;5075454;27;46049;-61
2022/04/04 14:17:27;;;;;;;;;10.25;8.00;;;;;;;;5076009;27;45338;-61
2022/04/04 14:19:52;;;;;;;;;7.25;7.25;;;;;;;;5076277;27;45327;-63
2022/04/04 14:22:17;;;;;;;;;6.00;6.00;;;;;;;;5076485;28;45883;-61
2022/04/04 14:24:43;;;;;;;;;5.25;5.25;;;;;;;;5075296;27;45440;-61
2022/04/04 14:27:08;;;;;;;;;7.75;6.75;;;;;;;;5075677;28;45510;-61
2022/04/04 14:29:33;;;;;;;;;10.50;10.50;;;;;;;;5075907;28;45194;-62
2022/04/04 14:31:59;;;;;;;;;7.25;7.25;;;;;;;;5075587;28;45362;-62
2022/04/04 14:34:24;;;;;;;;;6.50;6.50;;;;;;;;5075967;27;45446;-63